CheckWX is a tool to help pilots better visualize weather data.  It is not intended as a substitute for an official pre-flight weather briefing.

01:51:20 UTC

KSEA TAF
Seattle-Tacoma International Airport
Seattle, Washington, USA
KSEA 182338Z 1900/2006 08017G24KT P6SM FEW250 FM190500 05008KT P6SM SKC FM191200 03007KT P6SM SKC FM191800 05012KT P6SM SKC FM200300 07012KT P6SM SKC

Mar-19@
00:00 UTC

Mar-19 @ 00:00 UTC

Mar-19@
05:00 UTC

Mar-19 @ 05:00 UTC

KSEA 182338Z 1900/2006 08017G24KT P6SM FEW250
Wind
  • 080° at 17 KTS
  • {Gusting to 24 KTS
Cloud Levels
  • Few at 25,000' AGL

Mar-19@
05:00 UTC

Mar-19 @ 05:00 UTC

Mar-19@
12:00 UTC

Mar-19 @ 12:00 UTC

FM190500 05008KT P6SM SKC

From

From Standard forecast or significant change

Wind
  • 050° at 8 KTS
Cloud Levels
  • Clear skies

Mar-19@
12:00 UTC

Mar-19 @ 12:00 UTC

Mar-19@
18:00 UTC

Mar-19 @ 18:00 UTC

FM191200 03007KT P6SM SKC

From

From Standard forecast or significant change

Wind
  • 030° at 7 KTS
Cloud Levels
  • Clear skies

Mar-19@
18:00 UTC

Mar-19 @ 18:00 UTC

Mar-20@
03:00 UTC

Mar-20 @ 03:00 UTC

FM191800 05012KT P6SM SKC

From

From Standard forecast or significant change

Wind
  • 050° at 12 KTS
Cloud Levels
  • Clear skies

Mar-20@
03:00 UTC

Mar-20 @ 03:00 UTC

Mar-20@
06:00 UTC

Mar-20 @ 06:00 UTC

FM200300 07012KT P6SM SKC

From

From Standard forecast or significant change

Wind
  • 070° at 12 KTS
Cloud Levels
  • Clear skies